createdAt,value
2017-07-25T00:00:21.269Z,262140
2017-07-25T00:01:02.174Z,262140
2017-07-25T00:01:43.051Z,262140
2017-07-25T00:02:23.934Z,262140
2017-07-25T00:03:04.843Z,262140
2017-07-25T00:03:45.723Z,262140
2017-07-25T00:04:26.586Z,262140
2017-07-25T00:05:07.471Z,262140
2017-07-25T00:05:48.374Z,262140
2017-07-25T00:06:29.255Z,262140
2017-07-25T00:07:10.129Z,262140
2017-07-25T00:07:51.026Z,262140
2017-07-25T00:08:31.929Z,262140
2017-07-25T00:09:12.799Z,262140
2017-07-25T00:09:53.694Z,262140
2017-07-25T00:10:34.586Z,262140
2017-07-25T00:11:15.469Z,262140
2017-07-25T00:11:56.362Z,262140
2017-07-25T00:12:37.257Z,262140
2017-07-25T00:13:18.151Z,262140
2017-07-25T00:13:59.052Z,262140
2017-07-25T00:14:39.943Z,262140
2017-07-25T00:15:20.833Z,262140
2017-07-25T00:16:01.728Z,262140
2017-07-25T00:16:42.629Z,262140
2017-07-25T00:17:23.507Z,262140
2017-07-25T00:18:04.403Z,262140
2017-07-25T00:18:45.292Z,262140
2017-07-25T00:19:26.185Z,262140
2017-07-25T00:20:07.075Z,262140
2017-07-25T00:20:47.970Z,262140
2017-07-25T00:21:28.855Z,262140
2017-07-25T00:22:09.752Z,262140
2017-07-25T00:22:50.642Z,262140
2017-07-25T00:23:31.528Z,262140
2017-07-25T00:24:12.430Z,262140
2017-07-25T00:24:53.320Z,0
2017-07-25T00:25:34.212Z,0
2017-07-25T00:26:15.094Z,0
2017-07-25T00:26:55.999Z,0
2017-07-25T00:27:36.909Z,0
2017-07-25T00:28:17.815Z,0
2017-07-25T00:28:58.693Z,0
2017-07-25T00:29:39.585Z,0
2017-07-25T00:30:20.469Z,0
2017-07-25T00:31:01.362Z,0
2017-07-25T00:31:42.251Z,0
2017-07-25T00:32:23.153Z,0
2017-07-25T00:33:04.045Z,0
2017-07-25T00:33:44.936Z,0
2017-07-25T00:34:25.836Z,0
2017-07-25T00:35:06.717Z,0
2017-07-25T00:35:47.603Z,0
2017-07-25T00:36:28.492Z,0
2017-07-25T00:37:09.378Z,0
2017-07-25T00:37:50.255Z,0
2017-07-25T00:38:31.141Z,0
2017-07-25T00:39:12.058Z,0
2017-07-25T00:39:52.951Z,0
2017-07-25T00:40:33.851Z,0
2017-07-25T00:41:14.743Z,0
2017-07-25T00:41:55.612Z,0
2017-07-25T00:42:36.501Z,0
2017-07-25T00:43:17.401Z,0
2017-07-25T00:43:58.288Z,0
2017-07-25T00:44:39.172Z,0
2017-07-25T00:45:20.055Z,0
2017-07-25T00:46:00.950Z,0
2017-07-25T00:46:41.838Z,0
2017-07-25T00:47:22.736Z,0
2017-07-25T00:48:03.632Z,0
2017-07-25T00:48:44.511Z,0
2017-07-25T00:49:25.410Z,0
2017-07-25T00:50:06.318Z,0
2017-07-25T00:50:47.196Z,0
2017-07-25T00:51:28.083Z,0
2017-07-25T00:52:08.973Z,0
2017-07-25T00:52:49.867Z,0
2017-07-25T00:53:30.761Z,0
2017-07-25T00:54:11.656Z,0
2017-07-25T00:54:52.540Z,0
2017-07-25T00:55:33.464Z,0
2017-07-25T00:56:14.352Z,0
2017-07-25T00:56:55.244Z,0
2017-07-25T00:57:36.153Z,0
2017-07-25T00:58:17.020Z,0
2017-07-25T00:58:57.898Z,0
2017-07-25T00:59:38.794Z,0
2017-07-25T01:00:19.692Z,0
2017-07-25T01:01:00.593Z,0
2017-07-25T01:01:41.475Z,0
2017-07-25T01:02:22.370Z,0
2017-07-25T01:03:03.258Z,0
2017-07-25T01:03:44.165Z,0
2017-07-25T01:04:25.049Z,0
2017-07-25T01:05:05.942Z,0
2017-07-25T01:05:46.837Z,0
2017-07-25T01:06:27.718Z,0
2017-07-25T01:07:08.604Z,0
2017-07-25T01:07:49.555Z,0
2017-07-25T01:08:30.409Z,0
2017-07-25T01:09:11.305Z,0
2017-07-25T01:09:52.196Z,0
2017-07-25T01:10:33.126Z,0
2017-07-25T01:11:14.019Z,0
2017-07-25T01:11:54.904Z,0
2017-07-25T01:12:35.804Z,0
2017-07-25T01:13:16.688Z,0
2017-07-25T01:13:57.581Z,0
2017-07-25T01:14:38.482Z,0
2017-07-25T01:15:19.383Z,0
2017-07-25T01:16:00.268Z,0
2017-07-25T01:16:41.157Z,0
2017-07-25T01:17:22.052Z,0
2017-07-25T01:18:02.935Z,0
2017-07-25T01:18:43.826Z,0
2017-07-25T01:19:24.718Z,0
2017-07-25T01:20:05.617Z,0
2017-07-25T01:20:46.528Z,0
2017-07-25T01:21:27.411Z,0
2017-07-25T01:22:08.288Z,0
2017-07-25T01:22:49.186Z,0
2017-07-25T01:23:30.081Z,0
2017-07-25T01:24:10.964Z,0
2017-07-25T01:24:51.857Z,0
2017-07-25T01:25:32.778Z,0
2017-07-25T01:26:13.645Z,0
2017-07-25T01:26:54.540Z,0
2017-07-25T01:27:35.433Z,0
2017-07-25T01:28:16.351Z,0
2017-07-25T01:28:57.244Z,0
2017-07-25T01:29:38.147Z,0
2017-07-25T01:30:19.038Z,0
2017-07-25T01:30:59.938Z,0
2017-07-25T01:31:40.835Z,0
2017-07-25T01:32:21.728Z,0
2017-07-25T01:33:02.620Z,0
2017-07-25T01:33:43.596Z,0
2017-07-25T01:34:24.489Z,0
2017-07-25T01:35:05.389Z,0
2017-07-25T01:35:46.263Z,0
2017-07-25T01:36:27.157Z,0
2017-07-25T01:37:08.055Z,0
2017-07-25T01:37:48.941Z,0
2017-07-25T01:38:29.832Z,0
2017-07-25T01:39:10.729Z,0
2017-07-25T01:39:51.613Z,0
2017-07-25T01:40:32.499Z,0
2017-07-25T01:41:13.406Z,0
2017-07-25T01:41:54.278Z,0
2017-07-25T01:42:35.165Z,0
2017-07-25T01:43:16.055Z,0
2017-07-25T01:43:56.952Z,0
2017-07-25T01:44:37.823Z,0
2017-07-25T01:45:18.720Z,0
2017-07-25T01:45:59.638Z,0
2017-07-25T01:46:40.528Z,0
2017-07-25T01:47:21.433Z,0
2017-07-25T01:48:02.314Z,0
2017-07-25T01:48:43.204Z,0
2017-07-25T01:49:24.106Z,0
2017-07-25T01:50:04.985Z,0
2017-07-25T01:50:45.875Z,0
2017-07-25T01:51:26.788Z,0
2017-07-25T01:52:07.658Z,0
2017-07-25T01:52:48.533Z,0
2017-07-25T01:53:29.431Z,0
2017-07-25T01:54:10.340Z,0
2017-07-25T01:54:51.227Z,0
2017-07-25T01:55:32.134Z,0
2017-07-25T01:56:13.014Z,0
2017-07-25T01:56:53.908Z,0
2017-07-25T01:57:34.803Z,0
2017-07-25T01:58:15.683Z,0
2017-07-25T01:58:56.579Z,0
2017-07-25T01:59:37.489Z,0
2017-07-25T02:00:18.368Z,0
2017-07-25T02:00:59.307Z,0
2017-07-25T02:01:40.190Z,0
2017-07-25T02:02:21.098Z,0
2017-07-25T02:03:01.988Z,0
2017-07-25T02:03:42.875Z,0
2017-07-25T02:04:23.749Z,0
2017-07-25T02:05:04.658Z,0
2017-07-25T02:05:45.536Z,0
2017-07-25T02:06:26.463Z,0
2017-07-25T02:07:07.336Z,0
2017-07-25T02:07:48.193Z,0
2017-07-25T02:08:29.089Z,0
2017-07-25T02:09:09.989Z,0
2017-07-25T02:09:50.872Z,0
2017-07-25T02:10:31.757Z,0
2017-07-25T02:11:12.646Z,0
2017-07-25T02:11:53.549Z,0
2017-07-25T02:12:34.438Z,0
2017-07-25T02:13:15.331Z,0
2017-07-25T02:13:56.225Z,0
2017-07-25T02:14:37.109Z,0
2017-07-25T02:15:17.993Z,0
2017-07-25T02:15:58.890Z,0
2017-07-25T02:16:39.777Z,0
2017-07-25T02:17:20.669Z,0
2017-07-25T02:18:01.584Z,0
2017-07-25T02:18:42.460Z,0
2017-07-25T02:19:23.346Z,0
2017-07-25T02:20:04.248Z,0
2017-07-25T02:20:45.131Z,0
2017-07-25T02:21:26.021Z,0
2017-07-25T02:22:06.915Z,0
2017-07-25T02:22:47.801Z,0
2017-07-25T02:23:28.695Z,0
2017-07-25T02:24:09.595Z,0
2017-07-25T02:24:50.489Z,0
2017-07-25T02:25:31.371Z,0
2017-07-25T02:26:12.273Z,0
2017-07-25T02:26:53.144Z,0
2017-07-25T02:27:34.024Z,0
2017-07-25T02:28:14.925Z,0
2017-07-25T02:28:55.823Z,0
2017-07-25T02:29:36.707Z,0
2017-07-25T02:30:17.604Z,0
2017-07-25T02:30:58.501Z,0
2017-07-25T02:31:39.398Z,0
2017-07-25T02:32:20.291Z,0
2017-07-25T02:33:01.183Z,0
2017-07-25T02:33:42.076Z,0
2017-07-25T02:34:22.965Z,0
2017-07-25T02:35:03.854Z,0
2017-07-25T02:35:44.750Z,0
2017-07-25T02:36:25.638Z,0
2017-07-25T02:37:06.530Z,0
2017-07-25T02:37:47.421Z,0
2017-07-25T02:38:28.318Z,0
2017-07-25T02:39:09.211Z,0
2017-07-25T02:39:50.093Z,0
2017-07-25T02:40:31.031Z,0
2017-07-25T02:41:11.888Z,0
2017-07-25T02:41:52.787Z,0
2017-07-25T02:42:33.677Z,0
2017-07-25T02:43:14.569Z,0
2017-07-25T02:43:55.459Z,0
2017-07-25T02:44:36.355Z,0
2017-07-25T02:45:17.247Z,0
2017-07-25T02:45:58.139Z,0
2017-07-25T02:46:39.039Z,0
2017-07-25T02:47:19.926Z,0
2017-07-25T02:48:00.820Z,0
2017-07-25T02:48:41.719Z,0
2017-07-25T02:49:22.631Z,0
2017-07-25T02:50:03.521Z,0
2017-07-25T02:50:44.419Z,0
2017-07-25T02:51:25.312Z,0
2017-07-25T02:52:06.214Z,0
2017-07-25T02:52:47.119Z,0
2017-07-25T02:53:28.004Z,0
2017-07-25T02:54:08.895Z,0
2017-07-25T02:54:49.786Z,4
2017-07-25T02:55:30.677Z,4
2017-07-25T02:56:11.575Z,4
2017-07-25T02:56:52.471Z,4
2017-07-25T02:57:33.364Z,4
2017-07-25T02:58:14.257Z,4
2017-07-25T02:58:55.158Z,4
2017-07-25T02:59:36.049Z,4
2017-07-25T03:00:16.934Z,4
2017-07-25T03:00:57.807Z,4
2017-07-25T03:01:38.697Z,4
2017-07-25T03:02:19.592Z,4
2017-07-25T03:03:00.470Z,4
2017-07-25T03:03:41.360Z,4
2017-07-25T03:04:22.265Z,4
2017-07-25T03:05:03.146Z,4
2017-07-25T03:05:44.035Z,4
2017-07-25T03:06:24.945Z,4
2017-07-25T03:07:05.827Z,4
2017-07-25T03:07:46.727Z,8
2017-07-25T03:08:27.677Z,4
2017-07-25T03:09:08.580Z,4
2017-07-25T03:09:49.460Z,4
2017-07-25T03:10:30.352Z,8
2017-07-25T03:11:11.236Z,8
2017-07-25T03:11:52.122Z,8
2017-07-25T03:12:33.015Z,8
2017-07-25T03:13:13.899Z,8
2017-07-25T03:13:54.795Z,8
2017-07-25T03:14:35.691Z,12
2017-07-25T03:15:16.629Z,8
2017-07-25T03:15:57.501Z,8
2017-07-25T03:16:38.391Z,8
2017-07-25T03:17:19.298Z,12
2017-07-25T03:18:00.185Z,12
2017-07-25T03:18:41.071Z,12
2017-07-25T03:19:21.966Z,12
2017-07-25T03:20:02.866Z,12
2017-07-25T03:20:43.760Z,16
2017-07-25T03:21:24.652Z,16
2017-07-25T03:22:05.530Z,16
2017-07-25T03:22:46.409Z,20
2017-07-25T03:23:27.309Z,20
2017-07-25T03:24:08.210Z,24
2017-07-25T03:24:49.103Z,20
2017-07-25T03:25:29.994Z,24
2017-07-25T03:26:10.886Z,24
2017-07-25T03:26:51.775Z,28
2017-07-25T03:27:32.679Z,28
2017-07-25T03:28:13.568Z,32
2017-07-25T03:28:54.457Z,32
2017-07-25T03:29:35.353Z,32
2017-07-25T03:30:16.240Z,36
2017-07-25T03:30:57.128Z,40
2017-07-25T03:31:38.019Z,40
2017-07-25T03:32:18.914Z,40
2017-07-25T03:32:59.812Z,44
2017-07-25T03:33:40.709Z,48
2017-07-25T03:34:21.600Z,44
2017-07-25T03:35:02.492Z,48
2017-07-25T03:35:43.394Z,48
2017-07-25T03:36:24.281Z,48
2017-07-25T03:37:05.174Z,52
2017-07-25T03:37:46.065Z,52
2017-07-25T03:38:26.959Z,56
2017-07-25T03:39:07.851Z,52
2017-07-25T03:39:48.756Z,40
2017-07-25T03:40:29.646Z,40
2017-07-25T03:41:10.541Z,36
2017-07-25T03:41:51.421Z,40
2017-07-25T03:42:32.306Z,44
2017-07-25T03:43:13.215Z,44
2017-07-25T03:43:54.098Z,48
2017-07-25T03:44:34.980Z,48
2017-07-25T03:45:15.893Z,56
2017-07-25T03:45:56.774Z,60
2017-07-25T03:46:37.659Z,64
2017-07-25T03:47:18.583Z,64
2017-07-25T03:47:59.472Z,68
2017-07-25T03:48:40.370Z,64
2017-07-25T03:49:21.270Z,68
2017-07-25T03:50:02.153Z,72
2017-07-25T03:50:43.055Z,72
2017-07-25T03:51:23.945Z,80
2017-07-25T03:52:04.831Z,96
2017-07-25T03:52:45.720Z,112
2017-07-25T03:53:26.617Z,120
2017-07-25T03:54:07.501Z,120
2017-07-25T03:54:48.388Z,128
2017-07-25T03:55:29.288Z,144
2017-07-25T03:56:10.170Z,156
2017-07-25T03:56:51.049Z,164
2017-07-25T03:57:31.948Z,168
2017-07-25T03:58:12.837Z,172
2017-07-25T03:58:53.732Z,164
2017-07-25T03:59:34.640Z,168
2017-07-25T04:00:15.522Z,168
2017-07-25T04:00:56.406Z,180
2017-07-25T04:01:37.294Z,184
2017-07-25T04:02:18.184Z,184
2017-07-25T04:02:59.064Z,184
2017-07-25T04:03:39.965Z,180
2017-07-25T04:04:20.853Z,180
2017-07-25T04:05:01.744Z,184
2017-07-25T04:05:42.645Z,180
2017-07-25T04:06:23.539Z,192
2017-07-25T04:07:04.424Z,200
2017-07-25T04:07:45.305Z,212
2017-07-25T04:08:26.201Z,216
2017-07-25T04:09:07.102Z,224
2017-07-25T04:09:47.997Z,240
2017-07-25T04:10:28.893Z,260
2017-07-25T04:11:09.787Z,268
2017-07-25T04:11:50.675Z,288
2017-07-25T04:12:31.573Z,296
2017-07-25T04:13:12.461Z,312
2017-07-25T04:13:53.365Z,304
2017-07-25T04:14:34.250Z,296
2017-07-25T04:15:15.137Z,300
2017-07-25T04:15:56.023Z,316
2017-07-25T04:16:36.921Z,320
2017-07-25T04:17:17.810Z,324
2017-07-25T04:17:58.713Z,324
2017-07-25T04:18:39.606Z,312
2017-07-25T04:19:20.496Z,316
2017-07-25T04:20:02.020Z,324
2017-07-25T04:20:42.914Z,340
2017-07-25T04:21:23.805Z,348
2017-07-25T04:22:04.704Z,352
2017-07-25T04:22:45.586Z,356
2017-07-25T04:23:26.507Z,352
2017-07-25T04:24:07.383Z,360
2017-07-25T04:24:48.263Z,356
2017-07-25T04:25:29.166Z,332
2017-07-25T04:26:10.060Z,332
2017-07-25T04:26:50.964Z,344
2017-07-25T04:27:31.860Z,348
2017-07-25T04:28:12.748Z,348
2017-07-25T04:28:53.652Z,352
2017-07-25T04:29:34.528Z,352
2017-07-25T04:30:15.409Z,344
2017-07-25T04:30:56.331Z,356
2017-07-25T04:31:37.251Z,388
2017-07-25T04:32:18.110Z,416
2017-07-25T04:32:59.008Z,420
2017-07-25T04:33:39.903Z,384
2017-07-25T04:34:20.796Z,400
2017-07-25T04:35:01.686Z,384
2017-07-25T04:35:42.579Z,368
2017-07-25T04:36:23.475Z,368
2017-07-25T04:37:04.368Z,376
2017-07-25T04:37:45.253Z,396
2017-07-25T04:38:26.134Z,428
2017-07-25T04:39:07.026Z,468
2017-07-25T04:39:47.915Z,512
2017-07-25T04:40:28.811Z,540
2017-07-25T04:41:09.704Z,568
2017-07-25T04:41:50.603Z,632
2017-07-25T04:42:31.492Z,624
2017-07-25T04:43:12.387Z,556
2017-07-25T04:43:53.276Z,548
2017-07-25T04:44:34.162Z,520
2017-07-25T04:45:15.054Z,492
2017-07-25T04:45:55.948Z,460
2017-07-25T04:46:36.840Z,456
2017-07-25T04:47:17.841Z,440
2017-07-25T04:47:58.615Z,400
2017-07-25T04:48:39.509Z,356
2017-07-25T04:49:20.440Z,316
2017-07-25T04:50:01.316Z,316
2017-07-25T04:50:42.206Z,328
2017-07-25T04:51:23.106Z,352
2017-07-25T04:52:03.998Z,380
2017-07-25T04:52:44.875Z,416
2017-07-25T04:53:25.775Z,440
2017-07-25T04:54:06.668Z,432
2017-07-25T04:54:47.557Z,516
2017-07-25T04:55:28.454Z,516
2017-07-25T04:56:09.339Z,540
2017-07-25T04:56:50.242Z,544
2017-07-25T04:57:31.151Z,564
2017-07-25T04:58:12.037Z,564
2017-07-25T04:58:52.932Z,556
2017-07-25T04:59:33.827Z,568
2017-07-25T05:00:14.724Z,596
2017-07-25T05:00:55.660Z,564
2017-07-25T05:01:36.507Z,572
2017-07-25T05:02:17.395Z,584
2017-07-25T05:02:58.280Z,644
2017-07-25T05:03:39.169Z,728
2017-07-25T05:04:20.045Z,724
2017-07-25T05:06:18.917Z,600
2017-07-25T05:06:59.798Z,556
2017-07-25T05:07:40.698Z,548
2017-07-25T05:08:21.584Z,552
2017-07-25T05:09:02.468Z,488
2017-07-25T05:09:43.361Z,428
2017-07-25T05:10:24.235Z,380
2017-07-25T05:11:05.131Z,368
2017-07-25T05:11:46.008Z,392
2017-07-25T05:12:26.878Z,408
2017-07-25T05:13:07.767Z,500
2017-07-25T05:13:48.668Z,724
2017-07-25T05:14:29.532Z,736
2017-07-25T05:15:10.444Z,844
2017-07-25T05:15:51.335Z,808
2017-07-25T05:16:32.212Z,816
2017-07-25T05:17:13.099Z,664
2017-07-25T05:17:53.997Z,512
2017-07-25T05:18:34.871Z,592
2017-07-25T05:19:15.742Z,644
2017-07-25T05:19:56.625Z,616
2017-07-25T05:20:37.512Z,532
2017-07-25T05:21:18.413Z,504
2017-07-25T05:21:59.325Z,508
2017-07-25T05:22:40.219Z,588
2017-07-25T05:23:21.100Z,644
2017-07-25T05:24:01.986Z,556
2017-07-25T05:24:42.876Z,464
2017-07-25T05:25:23.778Z,464
2017-07-25T05:26:04.666Z,524
2017-07-25T05:26:45.561Z,540
2017-07-25T05:27:26.442Z,476
2017-07-25T05:28:07.353Z,532
2017-07-25T05:28:48.259Z,604
2017-07-25T05:29:29.143Z,784
2017-07-25T05:30:10.062Z,848
2017-07-25T05:30:50.949Z,836
2017-07-25T05:31:31.850Z,956
2017-07-25T05:32:12.733Z,1188
2017-07-25T05:32:53.620Z,1672
2017-07-25T05:33:34.499Z,1784
2017-07-25T05:34:15.419Z,2060
2017-07-25T05:34:56.333Z,2148
2017-07-25T05:35:37.227Z,2088
2017-07-25T05:36:18.111Z,1952
2017-07-25T05:36:58.994Z,1712
2017-07-25T05:37:39.899Z,1564
2017-07-25T05:38:20.800Z,1892
2017-07-25T05:39:01.676Z,2100
2017-07-25T05:39:42.570Z,2116
2017-07-25T05:40:23.459Z,2196
2017-07-25T05:41:04.330Z,2176
2017-07-25T05:41:45.195Z,2116
2017-07-25T05:42:26.085Z,1992
2017-07-25T05:43:06.983Z,2088
2017-07-25T05:43:47.863Z,2100
2017-07-25T05:44:28.810Z,2188
2017-07-25T05:45:09.678Z,2176
2017-07-25T05:45:50.548Z,2112
2017-07-25T05:46:31.436Z,1988
2017-07-25T05:47:12.324Z,1908
2017-07-25T05:47:53.200Z,1772
2017-07-25T05:48:34.079Z,1680
2017-07-25T05:49:14.972Z,1604
2017-07-25T05:49:55.905Z,1492
2017-07-25T05:50:36.745Z,1488
2017-07-25T05:51:17.615Z,1256
2017-07-25T05:51:58.509Z,1232
2017-07-25T05:52:39.413Z,1136
2017-07-25T05:53:20.285Z,1192
2017-07-25T05:54:01.158Z,1148
2017-07-25T05:54:42.065Z,1208
2017-07-25T05:55:22.955Z,1336
2017-07-25T05:56:03.825Z,1436
2017-07-25T05:56:44.725Z,1368
2017-07-25T05:57:25.622Z,1404
2017-07-25T05:58:06.500Z,1452
2017-07-25T05:58:47.385Z,1468
2017-07-25T05:59:28.294Z,1364
2017-07-25T06:00:09.161Z,1420
2017-07-25T06:00:50.053Z,1388
2017-07-25T06:01:30.930Z,1388
2017-07-25T06:02:11.826Z,1428
2017-07-25T06:02:52.696Z,1432
2017-07-25T06:03:33.564Z,1440
2017-07-25T06:04:14.632Z,1492
2017-07-25T06:04:55.484Z,1356
2017-07-25T06:06:49.121Z,1196
2017-07-25T06:07:30.012Z,1180
2017-07-25T06:08:10.894Z,1112
2017-07-25T06:08:51.770Z,1224
2017-07-25T06:09:32.668Z,1592
2017-07-25T06:10:13.546Z,1796
2017-07-25T06:10:54.436Z,1860
2017-07-25T06:11:35.342Z,1784
2017-07-25T06:12:16.220Z,2144
2017-07-25T06:12:57.115Z,2420
2017-07-25T06:13:38.012Z,2860
2017-07-25T06:14:18.891Z,2892
2017-07-25T06:14:59.973Z,3380
2017-07-25T06:15:40.703Z,3300
2017-07-25T06:16:21.578Z,3008
2017-07-25T06:17:02.481Z,3104
2017-07-25T06:17:43.376Z,3032
2017-07-25T06:18:24.266Z,2600
2017-07-25T06:19:05.180Z,2924
2017-07-25T06:20:43.579Z,2720
2017-07-25T06:21:24.458Z,2476
2017-07-25T06:22:05.346Z,2288
2017-07-25T06:22:46.228Z,2308
2017-07-25T06:23:27.139Z,2276
2017-07-25T06:24:08.023Z,1836
2017-07-25T06:24:48.921Z,1496
2017-07-25T06:25:29.808Z,1428
2017-07-25T06:26:10.697Z,1568
2017-07-25T06:26:51.582Z,1572
2017-07-25T06:27:32.476Z,1720
2017-07-25T06:28:13.363Z,1968
2017-07-25T06:28:54.251Z,2176
2017-07-25T06:29:35.148Z,2320
2017-07-25T06:30:16.037Z,2204
2017-07-25T06:30:56.912Z,2080
2017-07-25T06:31:37.823Z,2168
2017-07-25T06:32:18.716Z,2400
2017-07-25T06:32:59.594Z,2488
2017-07-25T06:33:40.493Z,2660
2017-07-25T06:34:21.381Z,2636
2017-07-25T06:35:02.265Z,2564
2017-07-25T06:35:43.166Z,2624
2017-07-25T06:36:24.048Z,2764
2017-07-25T06:37:05.029Z,2908
2017-07-25T06:37:45.862Z,2856
2017-07-25T06:38:26.754Z,2780
2017-07-25T06:39:07.645Z,2768
2017-07-25T06:39:48.559Z,2668
2017-07-25T06:40:29.433Z,2216
2017-07-25T06:41:10.361Z,2216
2017-07-25T06:41:51.248Z,2180
2017-07-25T06:42:32.138Z,2348
2017-07-25T06:43:13.035Z,2124
2017-07-25T06:43:53.926Z,1864
2017-07-25T06:44:34.831Z,1892
2017-07-25T06:45:15.721Z,1808
2017-07-25T06:45:56.610Z,1632
2017-07-25T06:46:37.488Z,1656
2017-07-25T06:47:18.378Z,1832
2017-07-25T06:47:59.259Z,2396
2017-07-25T06:48:40.140Z,2604
2017-07-25T06:49:21.038Z,2696
2017-07-25T06:50:01.931Z,2388
2017-07-25T06:50:42.813Z,2228
2017-07-25T06:51:23.700Z,2160
2017-07-25T06:52:04.592Z,2092
2017-07-25T06:52:45.485Z,2184
2017-07-25T06:53:26.397Z,2100
2017-07-25T06:54:07.284Z,2212
2017-07-25T06:54:48.169Z,2324
2017-07-25T06:55:29.103Z,2068
2017-07-25T06:56:09.966Z,2080
2017-07-25T06:56:50.861Z,2244
2017-07-25T06:57:31.755Z,2340
2017-07-25T06:58:12.655Z,2352
2017-07-25T06:58:53.546Z,2440
2017-07-25T06:59:34.440Z,2500
2017-07-25T07:00:15.334Z,2540
2017-07-25T07:00:56.234Z,2504
2017-07-25T07:01:37.117Z,2352
2017-07-25T07:02:18.011Z,2096
2017-07-25T07:02:58.910Z,2040
2017-07-25T07:03:39.790Z,2144
2017-07-25T07:04:20.665Z,2272
2017-07-25T07:05:01.545Z,2188
2017-07-25T07:05:42.474Z,2248
2017-07-25T07:06:23.356Z,2236
2017-07-25T07:07:04.264Z,2180
2017-07-25T07:07:45.144Z,2128
2017-07-25T07:08:26.042Z,2032
2017-07-25T07:09:06.943Z,2032
2017-07-25T07:09:47.821Z,1956
2017-07-25T07:10:28.762Z,1976
2017-07-25T07:11:09.598Z,1980
2017-07-25T07:11:50.476Z,1968
2017-07-25T07:12:31.374Z,2052
2017-07-25T07:13:12.248Z,2184
2017-07-25T07:13:53.148Z,2240
2017-07-25T07:14:34.036Z,2228
2017-07-25T07:15:14.925Z,2188
2017-07-25T07:15:55.812Z,2080
2017-07-25T07:16:36.707Z,2408
2017-07-25T07:17:17.596Z,2724
2017-07-25T07:17:58.490Z,2676
2017-07-25T07:18:39.374Z,2732
2017-07-25T07:19:20.267Z,2660
2017-07-25T07:20:01.160Z,2580
2017-07-25T07:20:42.056Z,2500
2017-07-25T07:21:22.946Z,2416
2017-07-25T07:22:03.836Z,2364
2017-07-25T07:22:44.740Z,2336
2017-07-25T07:23:25.629Z,2380
2017-07-25T07:24:06.525Z,2436
2017-07-25T07:24:47.417Z,2488
2017-07-25T07:25:28.310Z,2560
2017-07-25T07:26:09.203Z,2668
2017-07-25T07:26:50.086Z,2712
2017-07-25T07:27:30.978Z,2684
2017-07-25T07:28:11.862Z,2564
2017-07-25T07:28:52.768Z,2472
2017-07-25T07:29:33.658Z,2436
2017-07-25T07:30:14.551Z,2372
2017-07-25T07:30:55.442Z,2292
2017-07-25T07:31:36.329Z,2228
2017-07-25T07:32:17.224Z,2212
2017-07-25T07:32:58.117Z,2196
2017-07-25T07:33:38.995Z,2284
2017-07-25T07:34:19.889Z,2352
2017-07-25T07:35:00.778Z,2404
2017-07-25T07:35:41.683Z,2428
2017-07-25T07:36:22.557Z,2372
2017-07-25T07:37:03.451Z,2352
2017-07-25T07:37:44.332Z,2364
2017-07-25T07:38:25.224Z,2372
2017-07-25T07:39:06.112Z,2424
2017-07-25T07:39:47.010Z,2380
2017-07-25T07:40:27.896Z,2236
2017-07-25T07:41:08.780Z,2096
2017-07-25T07:41:49.677Z,2004
2017-07-25T07:42:30.567Z,1900
2017-07-25T07:43:11.466Z,1776
2017-07-25T07:43:52.358Z,1652
2017-07-25T07:44:33.244Z,1588
2017-07-25T07:45:14.160Z,1564
2017-07-25T07:45:55.032Z,1564
2017-07-25T07:46:35.927Z,1608
2017-07-25T07:47:16.820Z,1640
2017-07-25T07:47:57.701Z,1708
2017-07-25T07:48:38.595Z,1736
2017-07-25T07:49:19.522Z,1676
2017-07-25T07:50:00.376Z,1652
2017-07-25T07:50:41.264Z,1620
2017-07-25T07:51:22.159Z,1648
2017-07-25T07:52:03.053Z,1660
2017-07-25T07:52:43.952Z,1660
2017-07-25T07:53:24.857Z,1632
2017-07-25T07:54:05.727Z,1680
2017-07-25T07:54:46.601Z,1732
2017-07-25T07:55:27.508Z,1748
2017-07-25T07:56:08.396Z,1580
2017-07-25T07:56:49.277Z,1392
2017-07-25T07:57:30.162Z,1424
2017-07-25T07:58:11.073Z,1336
2017-07-25T07:58:51.947Z,1328
2017-07-25T07:59:32.829Z,1368
2017-07-25T08:00:13.732Z,1216
2017-07-25T08:00:54.625Z,1140
2017-07-25T08:01:35.516Z,1308
2017-07-25T08:02:16.410Z,1488
2017-07-25T08:02:57.312Z,1532
2017-07-25T08:03:38.211Z,1480
2017-07-25T08:04:19.107Z,1476
2017-07-25T08:05:00.935Z,1488
2017-07-25T08:05:41.833Z,1496
2017-07-25T08:06:22.747Z,1484
2017-07-25T08:07:03.651Z,1456
2017-07-25T08:07:44.536Z,1576
2017-07-25T08:08:25.422Z,1696
2017-07-25T08:09:06.316Z,1908
2017-07-25T08:09:47.212Z,2052
2017-07-25T08:10:28.104Z,2104
2017-07-25T08:11:09.019Z,2120
2017-07-25T08:11:49.913Z,2084
2017-07-25T08:12:30.810Z,2040
2017-07-25T08:13:11.698Z,2128
2017-07-25T08:13:52.587Z,2148
2017-07-25T08:14:33.493Z,2088
2017-07-25T08:15:14.385Z,1960
2017-07-25T08:15:55.285Z,1972
2017-07-25T08:16:36.177Z,2188
2017-07-25T08:17:17.084Z,2356
2017-07-25T08:17:57.952Z,2824
2017-07-25T08:18:38.848Z,3212
2017-07-25T08:19:19.736Z,3400
2017-07-25T08:20:00.622Z,4352
2017-07-25T08:20:41.513Z,4648
2017-07-25T08:21:22.415Z,5312
2017-07-25T08:22:03.324Z,5764
2017-07-25T08:22:44.214Z,5832
2017-07-25T08:23:25.106Z,5744
2017-07-25T08:24:05.985Z,5436
2017-07-25T08:24:46.884Z,4956
2017-07-25T08:25:27.765Z,4836
2017-07-25T08:26:08.650Z,4828
2017-07-25T08:26:49.543Z,5028
2017-07-25T08:27:30.458Z,5404
2017-07-25T08:28:11.321Z,5104
2017-07-25T08:28:52.223Z,4748
2017-07-25T08:29:33.119Z,4508
2017-07-25T08:30:13.995Z,4324
2017-07-25T08:30:54.890Z,3928
2017-07-25T08:31:35.784Z,3552
2017-07-25T08:32:16.667Z,3640
2017-07-25T08:32:57.547Z,4116
2017-07-25T08:33:38.428Z,4240
2017-07-25T08:34:19.333Z,4208
2017-07-25T08:35:00.218Z,4388
2017-07-25T08:35:41.117Z,4684
2017-07-25T08:36:22.012Z,4756
2017-07-25T08:37:02.896Z,4680
2017-07-25T08:37:43.828Z,4360
2017-07-25T08:38:24.717Z,4224
2017-07-25T08:39:05.615Z,4100
2017-07-25T08:39:46.525Z,3772
2017-07-25T08:40:27.439Z,3860
2017-07-25T08:41:08.326Z,3976
2017-07-25T08:41:49.213Z,3732
2017-07-25T08:42:30.094Z,3316
2017-07-25T08:43:10.986Z,3472
2017-07-25T08:43:51.871Z,3944
2017-07-25T08:44:32.765Z,3948
2017-07-25T08:45:13.682Z,4084
2017-07-25T08:45:54.561Z,4020
2017-07-25T08:46:35.445Z,3808
2017-07-25T08:47:16.363Z,3356
2017-07-25T08:47:57.229Z,3884
2017-07-25T08:48:38.111Z,4204
2017-07-25T08:49:19.004Z,4204
2017-07-25T08:49:59.906Z,3912
2017-07-25T08:50:40.796Z,3808
2017-07-25T08:51:21.702Z,3604
2017-07-25T08:52:02.642Z,3460
2017-07-25T08:52:43.533Z,3452
2017-07-25T08:53:24.431Z,3656
2017-07-25T08:54:05.346Z,4584
2017-07-25T08:54:46.223Z,5968
2017-07-25T08:55:27.134Z,7208
2017-07-25T08:56:08.033Z,8956
2017-07-25T08:56:48.953Z,10768
2017-07-25T08:57:29.841Z,11356
2017-07-25T08:58:10.721Z,11324
2017-07-25T08:58:51.602Z,10760
2017-07-25T08:59:32.497Z,9964
2017-07-25T09:00:13.383Z,9748
2017-07-25T09:00:54.276Z,8796
2017-07-25T09:01:35.186Z,8120
2017-07-25T09:02:16.070Z,7856
2017-07-25T09:02:56.968Z,6844
2017-07-25T09:03:37.858Z,6172
2017-07-25T09:04:18.761Z,5756
2017-07-25T09:04:59.649Z,5684
2017-07-25T09:05:40.548Z,5692
2017-07-25T09:06:21.436Z,5300
2017-07-25T09:07:02.323Z,4920
2017-07-25T09:07:43.217Z,4460
2017-07-25T09:08:24.122Z,4276
2017-07-25T09:09:05.032Z,4188
2017-07-25T09:09:45.911Z,3792
2017-07-25T09:10:26.819Z,3812
2017-07-25T09:11:07.724Z,3924
2017-07-25T09:11:48.618Z,3768
2017-07-25T09:12:29.530Z,3636
2017-07-25T09:13:10.390Z,3500
2017-07-25T09:13:51.267Z,3640
2017-07-25T09:14:32.163Z,4024
2017-07-25T09:15:13.060Z,4388
2017-07-25T09:15:53.948Z,4332
2017-07-25T09:16:34.835Z,4324
2017-07-25T09:17:15.727Z,4524
2017-07-25T09:17:56.615Z,4540
2017-07-25T09:18:37.497Z,4416
2017-07-25T09:19:18.396Z,4044
2017-07-25T09:19:59.284Z,3816
2017-07-25T09:20:40.176Z,3784
2017-07-25T09:21:21.086Z,3816
2017-07-25T09:22:01.974Z,3808
2017-07-25T09:22:42.864Z,3632
2017-07-25T09:23:23.765Z,3532
2017-07-25T09:24:04.659Z,3576
2017-07-25T09:24:45.542Z,3656
2017-07-25T09:25:26.442Z,3864
2017-07-25T09:26:07.334Z,4104
2017-07-25T09:26:48.225Z,4284
2017-07-25T09:27:29.129Z,4332
2017-07-25T09:28:10.021Z,4456
2017-07-25T09:28:50.914Z,4624